sensor_id;sensor_type;location;lat;lon;timestamp;pressure;altitude;pressure_sealevel;temperature;humidity
66857;BME280;53766;50.280;19.160;2022-08-01T00:00:57;98262.69;;;23.53;50.56
66857;BME280;53766;50.280;19.160;2022-08-01T00:03:25;98258.38;;;23.52;50.53
66857;BME280;53766;50.280;19.160;2022-08-01T00:05:52;98258.38;;;23.52;50.60
66857;BME280;53766;50.280;19.160;2022-08-01T00:08:20;98247.63;;;23.52;50.44
66857;BME280;53766;50.280;19.160;2022-08-01T00:10:47;98246.00;;;23.51;50.49
66857;BME280;53766;50.280;19.160;2022-08-01T00:13:15;98256.75;;;23.51;50.38
66857;BME280;53766;50.280;19.160;2022-08-01T00:15:43;98253.00;;;23.52;50.34
66857;BME280;53766;50.280;19.160;2022-08-01T00:18:21;98252.16;;;23.51;50.56
66857;BME280;53766;50.280;19.160;2022-08-01T00:20:48;98257.56;;;23.51;50.29
66857;BME280;53766;50.280;19.160;2022-08-01T00:23:16;98262.13;;;23.51;50.45
66857;BME280;53766;50.280;19.160;2022-08-01T00:25:44;98252.44;;;23.50;50.40
66857;BME280;53766;50.280;19.160;2022-08-01T00:28:11;98249.75;;;23.50;50.36
66857;BME280;53766;50.280;19.160;2022-08-01T00:30:40;98244.38;;;23.50;50.45
66857;BME280;53766;50.280;19.160;2022-08-01T00:33:08;98245.41;;;23.49;50.07
66857;BME280;53766;50.280;19.160;2022-08-01T00:35:35;98247.28;;;23.48;50.20
66857;BME280;53766;50.280;19.160;2022-08-01T00:38:03;98246.50;;;23.48;50.11
66857;BME280;53766;50.280;19.160;2022-08-01T00:40:31;98245.66;;;23.47;50.00
66857;BME280;53766;50.280;19.160;2022-08-01T00:42:58;98246.50;;;23.48;50.08
66857;BME280;53766;50.280;19.160;2022-08-01T00:45:25;98248.09;;;23.49;50.09
66857;BME280;53766;50.280;19.160;2022-08-01T00:47:53;98244.84;;;23.47;50.08
66857;BME280;53766;50.280;19.160;2022-08-01T00:50:21;98250.22;;;23.47;50.22
66857;BME280;53766;50.280;19.160;2022-08-01T00:52:51;98240.53;;;23.46;50.21
66857;BME280;53766;50.280;19.160;2022-08-01T00:55:19;98247.53;;;23.47;50.05
66857;BME280;53766;50.280;19.160;2022-08-01T00:57:48;98245.91;;;23.46;50.11
66857;BME280;53766;50.280;19.160;2022-08-01T01:00:34;98244.03;;;23.46;49.92
66857;BME280;53766;50.280;19.160;2022-08-01T01:03:20;98247.75;;;23.45;49.88
66857;BME280;53766;50.280;19.160;2022-08-01T01:06:30;98247.75;;;23.45;49.89
66857;BME280;53766;50.280;19.160;2022-08-01T01:18:02;98253.97;;;23.46;49.91
66857;BME280;53766;50.280;19.160;2022-08-01T01:20:33;98245.34;;;23.44;49.62
66857;BME280;53766;50.280;19.160;2022-08-01T01:23:29;98250.72;;;23.44;49.69
66857;BME280;53766;50.280;19.160;2022-08-01T01:29:02;98249.91;;;23.43;49.72
66857;BME280;53766;50.280;19.160;2022-08-01T01:32:04;98240.19;;;23.42;49.64
66857;BME280;53766;50.280;19.160;2022-08-01T01:34:36;98242.88;;;23.42;49.50
66857;BME280;53766;50.280;19.160;2022-08-01T01:37:09;98247.44;;;23.41;49.58
66857;BME280;53766;50.280;19.160;2022-08-01T01:39:40;98246.38;;;23.42;49.40
66857;BME280;53766;50.280;19.160;2022-08-01T01:42:14;98242.06;;;23.41;49.40
66857;BME280;53766;50.280;19.160;2022-08-01T01:44:45;98235.88;;;23.41;49.36
66857;BME280;53766;50.280;19.160;2022-08-01T01:47:14;98240.44;;;23.40;49.46
66857;BME280;53766;50.280;19.160;2022-08-01T01:49:45;98240.44;;;23.40;49.38
66857;BME280;53766;50.280;19.160;2022-08-01T01:52:16;98234.47;;;23.38;49.31
66857;BME280;53766;50.280;19.160;2022-08-01T01:54:47;98233.44;;;23.39;49.35
66857;BME280;53766;50.280;19.160;2022-08-01T01:57:16;98237.16;;;23.38;49.26
66857;BME280;53766;50.280;19.160;2022-08-01T01:59:47;98232.63;;;23.39;49.38
66857;BME280;53766;50.280;19.160;2022-08-01T02:02:17;98231.78;;;23.38;49.18
66857;BME280;53766;50.280;19.160;2022-08-01T02:04:46;98232.63;;;23.39;49.16
66857;BME280;53766;50.280;19.160;2022-08-01T02:07:21;98230.16;;;23.37;49.24
66857;BME280;53766;50.280;19.160;2022-08-01T02:09:51;98224.78;;;23.37;49.01
66857;BME280;53766;50.280;19.160;2022-08-01T02:12:20;98226.41;;;23.38;49.02
66857;BME280;53766;50.280;19.160;2022-08-01T02:14:51;98230.16;;;23.37;49.11
66857;BME280;53766;50.280;19.160;2022-08-01T02:17:23;98232.84;;;23.37;49.04
66857;BME280;53766;50.280;19.160;2022-08-01T02:19:52;98234.72;;;23.37;49.05
66857;BME280;53766;50.280;19.160;2022-08-01T02:22:30;98229.59;;;23.35;48.78
66857;BME280;53766;50.280;19.160;2022-08-01T02:27:40;98227.72;;;23.36;48.89
66857;BME280;53766;50.280;19.160;2022-08-01T02:30:12;98232.28;;;23.35;49.00
66857;BME280;53766;50.280;19.160;2022-08-01T02:32:46;98233.91;;;23.36;48.71
66857;BME280;53766;50.280;19.160;2022-08-01T02:35:20;98233.91;;;23.36;48.66
66857;BME280;53766;50.280;19.160;2022-08-01T02:37:51;98233.09;;;23.36;48.89
66857;BME280;53766;50.280;19.160;2022-08-01T02:40:20;98237.66;;;23.35;48.59
66857;BME280;53766;50.280;19.160;2022-08-01T02:42:50;98236.03;;;23.34;48.88
66857;BME280;53766;50.280;19.160;2022-08-01T02:45:24;98230.66;;;23.34;48.71
66857;BME280;53766;50.280;19.160;2022-08-01T02:47:57;98233.34;;;23.34;48.73
66857;BME280;53766;50.280;19.160;2022-08-01T02:50:26;98228.22;;;23.33;48.54
66857;BME280;53766;50.280;19.160;2022-08-01T02:52:57;98235.19;;;23.34;48.52
66857;BME280;53766;50.280;19.160;2022-08-01T02:55:25;98233.59;;;23.33;48.78
66857;BME280;53766;50.280;19.160;2022-08-01T02:57:54;98237.31;;;23.32;48.54
66857;BME280;53766;50.280;19.160;2022-08-01T03:00:28;98233.81;;;23.31;48.46
66857;BME280;53766;50.280;19.160;2022-08-01T03:02:58;98235.69;;;23.31;48.56
66857;BME280;53766;50.280;19.160;2022-08-01T03:05:27;98236.50;;;23.31;48.56
66857;BME280;53766;50.280;19.160;2022-08-01T03:07:55;98234.88;;;23.30;48.53
66857;BME280;53766;50.280;19.160;2022-08-01T03:10:31;98241.31;;;23.29;48.41
66857;BME280;53766;50.280;19.160;2022-08-01T03:13:00;98239.41;;;23.30;48.54
66857;BME280;53766;50.280;19.160;2022-08-01T03:15:31;98233.25;;;23.29;48.23
66857;BME280;53766;50.280;19.160;2022-08-01T03:18:00;98240.50;;;23.29;48.43
66857;BME280;53766;50.280;19.160;2022-08-01T03:20:29;98242.38;;;23.28;48.32
66857;BME280;53766;50.280;19.160;2022-08-01T03:23:02;98238.63;;;23.29;48.21
66857;BME280;53766;50.280;19.160;2022-08-01T03:25:32;98242.38;;;23.28;48.32
66857;BME280;53766;50.280;19.160;2022-08-01T03:28:03;98234.31;;;23.28;48.08
66857;BME280;53766;50.280;19.160;2022-08-01T03:30:32;98234.53;;;23.27;48.31
66857;BME280;53766;50.280;19.160;2022-08-01T03:33:00;98242.38;;;23.28;48.13
66857;BME280;53766;50.280;19.160;2022-08-01T03:35:30;98237.00;;;23.28;48.29
66857;BME280;53766;50.280;19.160;2022-08-01T03:38:02;98243.41;;;23.27;48.11
66857;BME280;53766;50.280;19.160;2022-08-01T03:41:04;98241.53;;;23.28;47.97
66857;BME280;53766;50.280;19.160;2022-08-01T03:43:39;98247.75;;;23.28;47.91
66857;BME280;53766;50.280;19.160;2022-08-01T03:46:13;98245.06;;;23.28;47.92
66857;BME280;53766;50.280;19.160;2022-08-01T03:48:48;98247.75;;;23.28;47.97
66857;BME280;53766;50.280;19.160;2022-08-01T03:51:18;98246.09;;;23.27;47.99
66857;BME280;53766;50.280;19.160;2022-08-01T03:53:50;98246.91;;;23.28;47.99
66857;BME280;53766;50.280;19.160;2022-08-01T03:56:19;98253.13;;;23.28;47.81
66857;BME280;53766;50.280;19.160;2022-08-01T03:58:49;98253.13;;;23.28;47.91
66857;BME280;53766;50.280;19.160;2022-08-01T04:01:18;98261.75;;;23.30;47.89
66857;BME280;53766;50.280;19.160;2022-08-01T04:03:46;98258.22;;;23.30;47.76
66857;BME280;53766;50.280;19.160;2022-08-01T04:06:14;98254.72;;;23.29;47.74
66857;BME280;53766;50.280;19.160;2022-08-01T04:08:42;98263.38;;;23.31;47.72
66857;BME280;53766;50.280;19.160;2022-08-01T04:11:26;98265.03;;;23.32;47.70
66857;BME280;53766;50.280;19.160;2022-08-01T04:13:55;98263.13;;;23.33;47.44
66857;BME280;53766;50.280;19.160;2022-08-01T04:16:24;98261.25;;;23.33;47.66
66857;BME280;53766;50.280;19.160;2022-08-01T04:18:51;98263.72;;;23.35;47.68
66857;BME280;53766;50.280;19.160;2022-08-01T04:21:22;98274.47;;;23.35;47.47
66857;BME280;53766;50.280;19.160;2022-08-01T04:23:51;98271.78;;;23.35;47.37
66857;BME280;53766;50.280;19.160;2022-08-01T04:26:21;98274.22;;;23.36;47.70
66857;BME280;53766;50.280;19.160;2022-08-01T04:28:49;98266.16;;;23.36;47.57
66857;BME280;53766;50.280;19.160;2022-08-01T04:31:19;98263.22;;;23.38;47.51
66857;BME280;53766;50.280;19.160;2022-08-01T04:33:50;98264.88;;;23.39;47.44
66857;BME280;53766;50.280;19.160;2022-08-01T04:36:22;98260.06;;;23.41;47.32
66857;BME280;53766;50.280;19.160;2022-08-01T04:38:55;98263.56;;;23.41;47.16
66857;BME280;53766;50.280;19.160;2022-08-01T04:41:23;98259.81;;;23.42;47.33
66857;BME280;53766;50.280;19.160;2022-08-01T04:43:52;98256.91;;;23.44;47.10
66857;BME280;53766;50.280;19.160;2022-08-01T04:46:22;98263.88;;;23.45;47.22
66857;BME280;53766;50.280;19.160;2022-08-01T04:48:50;98266.34;;;23.47;47.10
66857;BME280;53766;50.280;19.160;2022-08-01T04:51:18;98268.00;;;23.48;47.04
66857;BME280;53766;50.280;19.160;2022-08-01T04:53:49;98264.22;;;23.49;47.11
66857;BME280;53766;50.280;19.160;2022-08-01T04:56:19;98260.72;;;23.48;47.06
66857;BME280;53766;50.280;19.160;2022-08-01T04:58:47;98258.84;;;23.49;47.13
66857;BME280;53766;50.280;19.160;2022-08-01T05:01:15;98258.84;;;23.49;47.32
66857;BME280;53766;50.280;19.160;2022-08-01T05:03:43;98264.22;;;23.49;47.17
66857;BME280;53766;50.280;19.160;2022-08-01T05:06:11;98255.13;;;23.50;46.97
66857;BME280;53766;50.280;19.160;2022-08-01T05:08:38;98262.13;;;23.51;47.25
66857;BME280;53766;50.280;19.160;2022-08-01T05:11:06;98266.44;;;23.52;47.28
66857;BME280;53766;50.280;19.160;2022-08-01T05:13:33;98263.50;;;23.53;46.97
66857;BME280;53766;50.280;19.160;2022-08-01T05:16:01;98265.16;;;23.54;47.26
66857;BME280;53766;50.280;19.160;2022-08-01T05:18:30;98258.22;;;23.58;47.12
66857;BME280;53766;50.280;19.160;2022-08-01T05:20:58;98259.13;;;23.64;47.29
66857;BME280;53766;50.280;19.160;2022-08-01T05:23:26;98263.53;;;23.70;47.11
66857;BME280;53766;50.280;19.160;2022-08-01T05:26:10;98265.28;;;23.76;47.00
66857;BME280;53766;50.280;19.160;2022-08-01T05:28:42;98258.94;;;23.83;46.62
66857;BME280;53766;50.280;19.160;2022-08-01T05:31:09;98268.16;;;23.87;46.65
66857;BME280;53766;50.280;19.160;2022-08-01T05:33:37;98272.78;;;23.91;46.67
66857;BME280;53766;50.280;19.160;2022-08-01T05:36:05;98271.50;;;23.94;46.29
66857;BME280;53766;50.280;19.160;2022-08-01T05:38:32;98265.03;;;23.95;46.68
66857;BME280;53766;50.280;19.160;2022-08-01T05:41:00;98265.03;;;23.95;46.57
66857;BME280;53766;50.280;19.160;2022-08-01T05:43:27;98266.91;;;23.94;46.46
66857;BME280;53766;50.280;19.160;2022-08-01T05:45:55;98267.72;;;23.95;46.39
66857;BME280;53766;50.280;19.160;2022-08-01T05:48:24;98265.03;;;23.95;46.49
66857;BME280;53766;50.280;19.160;2022-08-01T05:50:51;98266.91;;;23.94;46.50
66857;BME280;53766;50.280;19.160;2022-08-01T05:53:25;98261.78;;;23.93;46.84
66857;BME280;53766;50.280;19.160;2022-08-01T05:55:54;98268.22;;;23.92;46.75
66857;BME280;53766;50.280;19.160;2022-08-01T05:58:22;98271.97;;;23.91;46.78
66857;BME280;53766;50.280;19.160;2022-08-01T06:00:49;98269.53;;;23.89;46.93
66857;BME280;53766;50.280;19.160;2022-08-01T06:03:18;98266.00;;;23.89;46.61
66857;BME280;53766;50.280;19.160;2022-08-01T06:05:45;98263.31;;;23.89;46.74
66857;BME280;53766;50.280;19.160;2022-08-01T06:08:13;98269.78;;;23.88;46.91
66857;BME280;53766;50.280;19.160;2022-08-01T06:10:40;98273.53;;;23.87;47.11
66857;BME280;53766;50.280;19.160;2022-08-01T06:13:08;98266.50;;;23.86;46.87
66857;BME280;53766;50.280;19.160;2022-08-01T06:15:36;98265.69;;;23.85;46.94
66857;BME280;53766;50.280;19.160;2022-08-01T06:18:03;98271.09;;;23.85;47.07
66857;BME280;53766;50.280;19.160;2022-08-01T06:20:32;98271.88;;;23.86;46.91
66857;BME280;53766;50.280;19.160;2022-08-01T06:22:59;98263.81;;;23.86;46.93
66857;BME280;53766;50.280;19.160;2022-08-01T06:25:29;98274.56;;;23.86;46.99
66857;BME280;53766;50.280;19.160;2022-08-01T06:27:56;98275.38;;;23.86;47.01
66857;BME280;53766;50.280;19.160;2022-08-01T06:30:24;98274.56;;;23.86;47.04
66857;BME280;53766;50.280;19.160;2022-08-01T06:32:52;98276.22;;;23.87;47.28
66857;BME280;53766;50.280;19.160;2022-08-01T06:35:19;98279.94;;;23.86;47.20
66857;BME280;53766;50.280;19.160;2022-08-01T06:37:47;98285.34;;;23.86;47.44
66857;BME280;53766;50.280;19.160;2022-08-01T06:40:16;98286.97;;;23.87;47.42
66857;BME280;53766;50.280;19.160;2022-08-01T06:42:44;98284.84;;;23.89;47.12
66857;BME280;53766;50.280;19.160;2022-08-01T06:45:14;98284.84;;;23.89;47.18
66857;BME280;53766;50.280;19.160;2022-08-01T06:47:43;98285.69;;;23.89;47.22
66857;BME280;53766;50.280;19.160;2022-08-01T06:50:17;98285.41;;;23.91;47.35
66857;BME280;53766;50.280;19.160;2022-08-01T06:52:45;98288.94;;;23.91;47.19
66857;BME280;53766;50.280;19.160;2022-08-01T06:55:12;98279.78;;;23.92;47.52
66857;BME280;53766;50.280;19.160;2022-08-01T06:57:52;98277.69;;;23.94;47.51
66857;BME280;53766;50.280;19.160;2022-08-01T07:00:22;98277.69;;;23.94;47.61
66857;BME280;53766;50.280;19.160;2022-08-01T07:02:51;98278.50;;;23.95;47.63
66857;BME280;53766;50.280;19.160;2022-08-01T07:05:19;98280.13;;;23.96;47.35
66857;BME280;53766;50.280;19.160;2022-08-01T07:07:48;98279.06;;;23.97;47.38
66857;BME280;53766;50.280;19.160;2022-08-01T07:10:16;98279.88;;;23.97;47.43
66857;BME280;53766;50.280;19.160;2022-08-01T07:12:43;98277.19;;;23.97;47.54
66857;BME280;53766;50.280;19.160;2022-08-01T07:15:11;98279.63;;;23.99;47.51
66857;BME280;53766;50.280;19.160;2022-08-01T07:17:40;98278.00;;;23.98;47.77
66857;BME280;53766;50.280;19.160;2022-08-01T07:20:10;98273.22;;;24.00;47.68
66857;BME280;53766;50.280;19.160;2022-08-01T07:22:40;98274.81;;;24.01;47.76
66857;BME280;53766;50.280;19.160;2022-08-01T07:25:09;98273.78;;;24.02;47.54
66857;BME280;53766;50.280;19.160;2022-08-01T07:27:37;98271.91;;;24.02;47.86
66857;BME280;53766;50.280;19.160;2022-08-01T07:30:05;98273.28;;;24.05;47.88
66857;BME280;53766;50.280;19.160;2022-08-01T07:32:33;98271.66;;;24.04;47.53
66857;BME280;53766;50.280;19.160;2022-08-01T07:35:02;98275.72;;;24.07;47.73
66857;BME280;53766;50.280;19.160;2022-08-01T07:37:30;98272.22;;;24.06;47.69
66857;BME280;53766;50.280;19.160;2022-08-01T07:40:17;98268.47;;;24.07;47.91
66857;BME280;53766;50.280;19.160;2022-08-01T07:42:46;98274.41;;;24.09;47.97
66857;BME280;53766;50.280;19.160;2022-08-01T07:45:13;98265.78;;;24.07;47.83
66857;BME280;53766;50.280;19.160;2022-08-01T07:47:42;98273.84;;;24.07;47.67
66857;BME280;53766;50.280;19.160;2022-08-01T07:50:10;98262.50;;;24.05;47.90
66857;BME280;53766;50.280;19.160;2022-08-01T07:52:39;98259.81;;;24.05;47.79
66857;BME280;53766;50.280;19.160;2022-08-01T07:55:07;98264.63;;;24.03;47.19
66857;BME280;53766;50.280;19.160;2022-08-01T07:57:35;98263.59;;;24.04;47.51
66857;BME280;53766;50.280;19.160;2022-08-01T08:00:05;98266.28;;;24.04;47.28
66857;BME280;53766;50.280;19.160;2022-08-01T08:02:33;98263.59;;;24.04;47.03
66857;BME280;53766;50.280;19.160;2022-08-01T08:05:01;98260.41;;;24.07;47.16
66857;BME280;53766;50.280;19.160;2022-08-01T08:07:29;98255.03;;;24.07;47.25
66857;BME280;53766;50.280;19.160;2022-08-01T08:09:56;98259.91;;;24.10;47.10
66857;BME280;53766;50.280;19.160;2022-08-01T08:12:24;98253.22;;;24.13;47.11
66857;BME280;53766;50.280;19.160;2022-08-01T08:14:57;98259.91;;;24.10;47.07
66857;BME280;53766;50.280;19.160;2022-08-01T08:17:27;98256.16;;;24.11;47.13
66857;BME280;53766;50.280;19.160;2022-08-01T08:19:54;98251.59;;;24.12;46.99
66857;BME280;53766;50.280;19.160;2022-08-01T08:22:22;98257.31;;;24.15;47.18
66857;BME280;53766;50.280;19.160;2022-08-01T08:24:49;98261.38;;;24.18;46.96
66857;BME280;53766;50.280;19.160;2022-08-01T08:27:17;98263.00;;;24.19;46.85
66857;BME280;53766;50.280;19.160;2022-08-01T08:29:45;98257.88;;;24.17;46.96
66857;BME280;53766;50.280;19.160;2022-08-01T08:32:13;98269.22;;;24.19;46.86
66857;BME280;53766;50.280;19.160;2022-08-01T08:34:41;98270.81;;;24.20;46.78
66857;BME280;53766;50.280;19.160;2022-08-01T08:37:09;98258.91;;;24.16;46.69
66857;BME280;53766;50.280;19.160;2022-08-01T08:39:37;98260.56;;;24.17;46.71
66857;BME280;53766;50.280;19.160;2022-08-01T08:42:10;98265.94;;;24.17;46.90
66857;BME280;53766;50.280;19.160;2022-08-01T08:44:40;98264.88;;;24.18;46.69
66857;BME280;53766;50.280;19.160;2022-08-01T08:47:12;98263.25;;;24.17;46.65
66857;BME280;53766;50.280;19.160;2022-08-01T08:49:48;98261.38;;;24.18;46.19
66857;BME280;53766;50.280;19.160;2022-08-01T08:52:19;98274.59;;;24.19;46.28
66857;BME280;53766;50.280;19.160;2022-08-01T08:54:48;98270.81;;;24.20;46.04
66857;BME280;53766;50.280;19.160;2022-08-01T08:57:16;98269.22;;;24.19;45.92
66857;BME280;53766;50.280;19.160;2022-08-01T08:59:47;98269.22;;;24.19;46.04
66857;BME280;53766;50.280;19.160;2022-08-01T09:02:14;98274.59;;;24.19;45.88
66857;BME280;53766;50.280;19.160;2022-08-01T09:04:42;98279.13;;;24.19;45.93
66857;BME280;53766;50.280;19.160;2022-08-01T09:07:09;98279.97;;;24.19;46.05
66857;BME280;53766;50.280;19.160;2022-08-01T09:09:38;98282.66;;;24.19;46.10
66857;BME280;53766;50.280;19.160;2022-08-01T09:12:08;98279.97;;;24.19;46.04
66857;BME280;53766;50.280;19.160;2022-08-01T09:14:45;98285.34;;;24.19;45.88
66857;BME280;53766;50.280;19.160;2022-08-01T09:17:13;98280.78;;;24.20;45.72
66857;BME280;53766;50.280;19.160;2022-08-01T09:19:46;98278.09;;;24.20;45.59
66857;BME280;53766;50.280;19.160;2022-08-01T09:22:23;98280.53;;;24.21;45.88
66857;BME280;53766;50.280;19.160;2022-08-01T09:25:20;98279.97;;;24.19;45.67
66857;BME280;53766;50.280;19.160;2022-08-01T09:28:06;98280.53;;;24.21;45.89
66857;BME280;53766;50.280;19.160;2022-08-01T09:30:38;98281.59;;;24.20;45.77
66857;BME280;53766;50.280;19.160;2022-08-01T09:33:07;98284.28;;;24.20;45.94
66857;BME280;53766;50.280;19.160;2022-08-01T09:35:55;98285.94;;;24.21;45.85
66857;BME280;53766;50.280;19.160;2022-08-01T09:38:25;98293.16;;;24.21;45.86
66857;BME280;53766;50.280;19.160;2022-08-01T09:41:00;98291.03;;;24.23;45.76
66857;BME280;53766;50.280;19.160;2022-08-01T09:43:29;98295.63;;;24.22;45.88
66857;BME280;53766;50.280;19.160;2022-08-01T09:45:59;98301.00;;;24.22;46.03
66857;BME280;53766;50.280;19.160;2022-08-01T09:48:27;98296.13;;;24.19;45.67
66857;BME280;53766;50.280;19.160;2022-08-01T09:50:57;98301.50;;;24.19;45.79
66857;BME280;53766;50.280;19.160;2022-08-01T09:53:44;98298.53;;;24.21;46.04
66857;BME280;53766;50.280;19.160;2022-08-01T09:56:20;98299.38;;;24.21;45.99
66857;BME280;53766;50.280;19.160;2022-08-01T10:01:27;98301.16;;;24.16;46.28
66857;BME280;53766;50.280;19.160;2022-08-01T10:04:19;98300.34;;;24.15;46.34
66857;BME280;53766;50.280;19.160;2022-08-01T10:06:50;98299.84;;;24.18;46.38
66857;BME280;53766;50.280;19.160;2022-08-01T10:09:29;98304.19;;;24.19;46.55
66857;BME280;53766;50.280;19.160;2022-08-01T10:12:07;98306.63;;;24.21;46.44
66857;BME280;53766;50.280;19.160;2022-08-01T10:14:47;98305.56;;;24.22;46.71
66857;BME280;53766;50.280;19.160;2022-08-01T10:17:19;98299.91;;;24.23;46.79
66857;BME280;53766;50.280;19.160;2022-08-01T10:19:49;98299.69;;;24.25;46.87
66857;BME280;53766;50.280;19.160;2022-08-01T10:22:19;98303.19;;;24.26;46.59
66857;BME280;53766;50.280;19.160;2022-08-01T10:24:47;98300.75;;;24.24;46.91
66857;BME280;53766;50.280;19.160;2022-08-01T10:27:17;98291.84;;;24.23;46.46
66857;BME280;53766;50.280;19.160;2022-08-01T10:30:05;98302.06;;;24.21;46.11
66857;BME280;53766;50.280;19.160;2022-08-01T10:32:50;98301.00;;;24.22;46.62
66857;BME280;53766;50.280;19.160;2022-08-01T10:35:22;98302.13;;;24.27;46.63
66857;BME280;53766;50.280;19.160;2022-08-01T10:38:10;98298.38;;;24.28;46.66
66857;BME280;53766;50.280;19.160;2022-08-01T10:40:42;98300.03;;;24.29;46.56
66857;BME280;53766;50.280;19.160;2022-08-01T10:43:12;98297.91;;;24.31;46.41
66857;BME280;53766;50.280;19.160;2022-08-01T10:45:49;98290.88;;;24.30;46.23
66857;BME280;53766;50.280;19.160;2022-08-01T10:48:22;98298.38;;;24.28;45.68
66857;BME280;53766;50.280;19.160;2022-08-01T10:50:59;98291.38;;;24.27;45.93
66857;BME280;53766;50.280;19.160;2022-08-01T10:53:28;98286.00;;;24.27;46.08
66857;BME280;53766;50.280;19.160;2022-08-01T10:56:01;98288.69;;;24.27;46.17
66857;BME280;53766;50.280;19.160;2022-08-01T10:58:36;98277.41;;;24.30;46.66
66857;BME280;53766;50.280;19.160;2022-08-01T11:09:05;98287.13;;;24.31;46.55
66857;BME280;53766;50.280;19.160;2022-08-01T11:11:57;98275.88;;;24.34;46.67
66857;BME280;53766;50.280;19.160;2022-08-01T11:14:27;98275.38;;;24.37;46.54
66857;BME280;53766;50.280;19.160;2022-08-01T11:17:35;98277.00;;;24.38;46.95
66857;BME280;53766;50.280;19.160;2022-08-01T11:20:13;98284.03;;;24.39;46.75
66857;BME280;53766;50.280;19.160;2022-08-01T11:28:33;98280.59;;;24.43;47.11
66857;BME280;53766;50.280;19.160;2022-08-01T11:41:41;98283.84;;;24.46;46.92
66857;BME280;53766;50.280;19.160;2022-08-01T11:44:14;98288.66;;;24.43;46.67
66857;BME280;53766;50.280;19.160;2022-08-01T11:52:24;98284.66;;;24.46;46.63
66857;BME280;53766;50.280;19.160;2022-08-01T11:54:55;98290.06;;;24.46;46.38
66857;BME280;53766;50.280;19.160;2022-08-01T11:57:27;98285.72;;;24.45;46.64
66857;BME280;53766;50.280;19.160;2022-08-01T12:02:44;98285.84;;;24.50;46.39
66857;BME280;53766;50.280;19.160;2022-08-01T12:05:14;98282.31;;;24.50;46.49
66857;BME280;53766;50.280;19.160;2022-08-01T12:07:45;98284.19;;;24.49;46.40
66857;BME280;53766;50.280;19.160;2022-08-01T12:10:18;98277.19;;;24.48;46.41
66857;BME280;53766;50.280;19.160;2022-08-01T12:12:49;98274.22;;;24.50;46.89
66857;BME280;53766;50.280;19.160;2022-08-01T12:15:19;98269.41;;;24.52;46.90
66857;BME280;53766;50.280;19.160;2022-08-01T12:17:49;98272.44;;;24.55;46.69
66857;BME280;53766;50.280;19.160;2022-08-01T12:20:28;98268.69;;;24.56;46.64
66857;BME280;53766;50.280;19.160;2022-08-01T12:23:03;98273.56;;;24.59;46.63
66857;BME280;53766;50.280;19.160;2022-08-01T12:25:33;98266.06;;;24.61;46.40
66857;BME280;53766;50.280;19.160;2022-08-01T12:28:05;98273.06;;;24.62;46.67
66857;BME280;53766;50.280;19.160;2022-08-01T12:30:34;98269.78;;;24.60;46.55
66857;BME280;53766;50.280;19.160;2022-08-01T12:33:06;98268.69;;;24.56;46.47
66857;BME280;53766;50.280;19.160;2022-08-01T12:35:37;98263.31;;;24.56;46.72
66857;BME280;53766;50.280;19.160;2022-08-01T12:38:13;98267.84;;;24.56;46.56
66857;BME280;53766;50.280;19.160;2022-08-01T12:40:42;98257.94;;;24.56;46.37
66857;BME280;53766;50.280;19.160;2022-08-01T12:43:17;98253.06;;;24.58;46.40
66857;BME280;53766;50.280;19.160;2022-08-01T12:45:58;98259.03;;;24.60;46.37
66857;BME280;53766;50.280;19.160;2022-08-01T12:48:29;98259.03;;;24.60;46.49
66857;BME280;53766;50.280;19.160;2022-08-01T12:50:59;98253.66;;;24.60;46.85
66857;BME280;53766;50.280;19.160;2022-08-01T12:53:28;98252.03;;;24.59;46.61
66857;BME280;53766;50.280;19.160;2022-08-01T12:56:09;98254.97;;;24.58;46.83
66857;BME280;53766;50.280;19.160;2022-08-01T12:58:39;98255.78;;;24.58;47.06
66857;BME280;53766;50.280;19.160;2022-08-01T13:01:10;98258.22;;;24.60;46.96
66857;BME280;53766;50.280;19.160;2022-08-01T13:03:39;98249.09;;;24.61;46.94
66857;BME280;53766;50.280;19.160;2022-08-01T13:06:14;98249.09;;;24.61;46.88
66857;BME280;53766;50.280;19.160;2022-08-01T13:08:44;98251.78;;;24.61;46.96
66857;BME280;53766;50.280;19.160;2022-08-01T13:11:14;98256.91;;;24.62;46.92
66857;BME280;53766;50.280;19.160;2022-08-01T13:13:46;98241.59;;;24.63;46.77
66857;BME280;53766;50.280;19.160;2022-08-01T13:16:20;98244.56;;;24.67;46.86
66857;BME280;53766;50.280;19.160;2022-08-01T13:19:08;98241.97;;;24.72;46.92
66857;BME280;53766;50.280;19.160;2022-08-01T13:21:36;98239.28;;;24.72;47.11
66857;BME280;53766;50.280;19.160;2022-08-01T13:24:25;98242.53;;;24.74;46.66
66857;BME280;53766;50.280;19.160;2022-08-01T13:26:58;98247.41;;;24.77;47.06
66857;BME280;53766;50.280;19.160;2022-08-01T13:29:38;98246.09;;;24.79;46.72
66857;BME280;53766;50.280;19.160;2022-08-01T13:32:16;98248.53;;;24.81;47.10
66857;BME280;53766;50.280;19.160;2022-08-01T13:35:07;98243.16;;;24.81;46.79
66857;BME280;53766;50.280;19.160;2022-08-01T13:37:37;98245.75;;;24.76;46.67
66857;BME280;53766;50.280;19.160;2022-08-01T13:40:06;98243.00;;;24.71;46.36
66857;BME280;53766;50.280;19.160;2022-08-01T13:42:35;98245.22;;;24.74;46.30
66857;BME280;53766;50.280;19.160;2022-08-01T13:45:03;98244.72;;;24.77;46.35
66857;BME280;53766;50.280;19.160;2022-08-01T13:47:44;98245.53;;;24.77;46.61
66857;BME280;53766;50.280;19.160;2022-08-01T13:50:32;98246.09;;;24.79;46.51
66857;BME280;53766;50.280;19.160;2022-08-01T13:52:59;98243.97;;;24.81;46.84
66857;BME280;53766;50.280;19.160;2022-08-01T13:55:28;98244.75;;;24.82;46.74
66857;BME280;53766;50.280;19.160;2022-08-01T13:58:01;98240.69;;;24.79;46.92
66857;BME280;53766;50.280;19.160;2022-08-01T14:00:30;98250.47;;;24.86;47.05
66857;BME280;53766;50.280;19.160;2022-08-01T14:02:58;98242.97;;;24.88;47.08